College Park, Georgia
Current Conditions -  °F | °C
As of 5:52 PM on Monday 24 Nov 2014 (Local Time) from KATL Reporting Station
Few Clouds Few Clouds  
Wind Chill: 67°   Ceiling: Unl
Heat Index: 67°   Visibility: 10mi
Dew Point: 49°   Wind: 7mph
Humidity: 52%   Direction: 270°W
Pressure: 29.85"   Gusts: NA
Location:  33.64°N, 84.47°W
Report Text: KATL 242252Z 27006KT 10SM FEW250 19/09 A2985 RMK AO2 SLP103 T01940094
Loading
Personal Weather Stations






























Interactive Weather Map New forecast layout! Learn more

10-Day Weather Forecast

Advertisements
Track Severe Weather on mobile